Phoenix, Arizona
Traffic Map
Current Weather Conditions
Phoenix, Arizona
Broken Clouds
Broken Clouds
103°
Feels Like: 103°
Wind Chill: 103° Ceiling: 19000
Heat Index: 103° Visibility: 10mi
Dew Point: 50° Wind: 6mph
Humidity: 17% Direction: 170° (S)
Pressure: 29.85in Gusts: 0mph
Raw Report DataKPHX 262151Z 17005KT 10SM FEW090 SCT130 BKN190 BKN250 39/10 A2985 RMK AO2 SLP087 T03940100
Traffic Incident Summary
Active as of:
Severity:
Category:
InformationThere was an issue retrieving the traffic information for this location. Please try a different location or try again shortly.
Advertisements
Track Severe Weather on mobile